sensor_id;sensor_type;location;lat;lon;timestamp;temperature;humidity
8043;DHT22;4064;48.132;11.366;2023-09-07T00:00:30;14.10;99.90
8043;DHT22;4064;48.132;11.366;2023-09-07T00:02:55;14.10;99.90
8043;DHT22;4064;48.132;11.366;2023-09-07T00:05:21;13.90;99.90
8043;DHT22;4064;48.132;11.366;2023-09-07T00:07:46;14.10;99.90
8043;DHT22;4064;48.132;11.366;2023-09-07T00:10:12;14.20;99.90
8043;DHT22;4064;48.132;11.366;2023-09-07T00:12:38;14.20;99.90
8043;DHT22;4064;48.132;11.366;2023-09-07T00:15:05;14.10;99.90
8043;DHT22;4064;48.132;11.366;2023-09-07T00:17:34;13.90;99.90
8043;DHT22;4064;48.132;11.366;2023-09-07T00:19:59;14.10;99.90
8043;DHT22;4064;48.132;11.366;2023-09-07T00:22:25;14.00;99.90
8043;DHT22;4064;48.132;11.366;2023-09-07T00:24:53;14.00;99.90
8043;DHT22;4064;48.132;11.366;2023-09-07T00:27:19;13.90;99.90
8043;DHT22;4064;48.132;11.366;2023-09-07T00:29:44;13.90;99.90
8043;DHT22;4064;48.132;11.366;2023-09-07T00:32:10;14.00;99.90
8043;DHT22;4064;48.132;11.366;2023-09-07T00:34:35;14.00;99.90
8043;DHT22;4064;48.132;11.366;2023-09-07T00:37:01;13.80;99.90
8043;DHT22;4064;48.132;11.366;2023-09-07T00:39:27;13.90;99.90
8043;DHT22;4064;48.132;11.366;2023-09-07T00:41:52;13.90;99.90
8043;DHT22;4064;48.132;11.366;2023-09-07T00:44:18;13.80;99.90
8043;DHT22;4064;48.132;11.366;2023-09-07T00:46:43;13.80;99.90
8043;DHT22;4064;48.132;11.366;2023-09-07T00:49:11;13.70;99.90
8043;DHT22;4064;48.132;11.366;2023-09-07T00:51:37;13.80;99.90
8043;DHT22;4064;48.132;11.366;2023-09-07T00:54:03;13.80;99.90
8043;DHT22;4064;48.132;11.366;2023-09-07T00:56:28;13.70;99.90
8043;DHT22;4064;48.132;11.366;2023-09-07T00:58:54;13.70;99.90
8043;DHT22;4064;48.132;11.366;2023-09-07T01:01:22;13.70;99.90
8043;DHT22;4064;48.132;11.366;2023-09-07T01:03:49;13.60;99.90
8043;DHT22;4064;48.132;11.366;2023-09-07T01:06:47;13.60;99.90
8043;DHT22;4064;48.132;11.366;2023-09-07T01:09:19;13.60;99.90
8043;DHT22;4064;48.132;11.366;2023-09-07T01:11:45;13.60;99.90
8043;DHT22;4064;48.132;11.366;2023-09-07T01:14:10;13.60;99.90
8043;DHT22;4064;48.132;11.366;2023-09-07T01:16:36;13.70;99.90
8043;DHT22;4064;48.132;11.366;2023-09-07T01:19:06;13.60;99.90
8043;DHT22;4064;48.132;11.366;2023-09-07T01:21:38;13.60;99.90
8043;DHT22;4064;48.132;11.366;2023-09-07T01:24:06;13.60;99.90
8043;DHT22;4064;48.132;11.366;2023-09-07T01:26:33;13.40;99.90
8043;DHT22;4064;48.132;11.366;2023-09-07T01:29:00;13.50;99.90
8043;DHT22;4064;48.132;11.366;2023-09-07T01:31:26;13.60;99.90
8043;DHT22;4064;48.132;11.366;2023-09-07T01:33:52;13.50;99.90
8043;DHT22;4064;48.132;11.366;2023-09-07T01:36:17;13.30;99.90
8043;DHT22;4064;48.132;11.366;2023-09-07T01:38:43;13.20;99.90
8043;DHT22;4064;48.132;11.366;2023-09-07T01:41:09;13.40;99.90
8043;DHT22;4064;48.132;11.366;2023-09-07T01:43:35;13.30;99.90
8043;DHT22;4064;48.132;11.366;2023-09-07T01:46:01;13.20;99.90
8043;DHT22;4064;48.132;11.366;2023-09-07T01:48:26;13.30;99.90
8043;DHT22;4064;48.132;11.366;2023-09-07T01:50:53;13.10;99.90
8043;DHT22;4064;48.132;11.366;2023-09-07T01:53:19;13.20;99.90
8043;DHT22;4064;48.132;11.366;2023-09-07T01:55:45;13.00;99.90
8043;DHT22;4064;48.132;11.366;2023-09-07T01:58:10;13.20;99.90
8043;DHT22;4064;48.132;11.366;2023-09-07T02:00:37;13.10;99.90
8043;DHT22;4064;48.132;11.366;2023-09-07T02:03:04;13.40;99.90
8043;DHT22;4064;48.132;11.366;2023-09-07T02:05:30;13.10;99.90
8043;DHT22;4064;48.132;11.366;2023-09-07T02:07:57;13.10;99.90
8043;DHT22;4064;48.132;11.366;2023-09-07T02:10:23;13.10;99.90
8043;DHT22;4064;48.132;11.366;2023-09-07T02:12:49;12.90;99.90
8043;DHT22;4064;48.132;11.366;2023-09-07T02:15:14;13.00;99.90
8043;DHT22;4064;48.132;11.366;2023-09-07T02:17:40;12.90;99.90
8043;DHT22;4064;48.132;11.366;2023-09-07T02:20:06;13.10;99.90
8043;DHT22;4064;48.132;11.366;2023-09-07T02:22:36;13.10;99.90
8043;DHT22;4064;48.132;11.366;2023-09-07T02:25:02;13.10;99.90
8043;DHT22;4064;48.132;11.366;2023-09-07T02:27:28;13.10;99.90
8043;DHT22;4064;48.132;11.366;2023-09-07T02:29:54;13.10;99.90
8043;DHT22;4064;48.132;11.366;2023-09-07T02:32:19;13.00;99.90
8043;DHT22;4064;48.132;11.366;2023-09-07T02:34:45;13.20;99.90
8043;DHT22;4064;48.132;11.366;2023-09-07T02:37:11;13.10;99.90
8043;DHT22;4064;48.132;11.366;2023-09-07T02:39:36;13.20;99.90
8043;DHT22;4064;48.132;11.366;2023-09-07T02:42:02;13.10;99.90
8043;DHT22;4064;48.132;11.366;2023-09-07T02:44:27;13.00;99.90
8043;DHT22;4064;48.132;11.366;2023-09-07T02:46:54;13.00;99.90
8043;DHT22;4064;48.132;11.366;2023-09-07T02:49:19;12.90;99.90
8043;DHT22;4064;48.132;11.366;2023-09-07T02:51:45;12.90;99.90
8043;DHT22;4064;48.132;11.366;2023-09-07T02:54:10;12.90;99.90
8043;DHT22;4064;48.132;11.366;2023-09-07T02:56:36;12.90;99.90
8043;DHT22;4064;48.132;11.366;2023-09-07T02:59:02;12.80;99.90
8043;DHT22;4064;48.132;11.366;2023-09-07T03:01:28;12.70;99.90
8043;DHT22;4064;48.132;11.366;2023-09-07T03:03:54;12.80;99.90
8043;DHT22;4064;48.132;11.366;2023-09-07T03:06:19;12.70;99.90
8043;DHT22;4064;48.132;11.366;2023-09-07T03:08:45;12.70;99.90
8043;DHT22;4064;48.132;11.366;2023-09-07T03:11:11;12.70;99.90
8043;DHT22;4064;48.132;11.366;2023-09-07T03:13:37;12.60;99.90
8043;DHT22;4064;48.132;11.366;2023-09-07T03:16:03;12.60;99.90
8043;DHT22;4064;48.132;11.366;2023-09-07T03:18:30;12.70;99.90
8043;DHT22;4064;48.132;11.366;2023-09-07T03:21:00;12.70;99.90
8043;DHT22;4064;48.132;11.366;2023-09-07T03:23:31;12.60;99.90
8043;DHT22;4064;48.132;11.366;2023-09-07T03:25:57;12.60;99.90
8043;DHT22;4064;48.132;11.366;2023-09-07T03:28:23;12.60;99.90
8043;DHT22;4064;48.132;11.366;2023-09-07T03:30:51;12.50;99.90
8043;DHT22;4064;48.132;11.366;2023-09-07T03:33:17;12.50;99.90
8043;DHT22;4064;48.132;11.366;2023-09-07T03:35:42;12.60;99.90
8043;DHT22;4064;48.132;11.366;2023-09-07T03:38:08;12.60;99.90
8043;DHT22;4064;48.132;11.366;2023-09-07T03:40:34;12.50;99.90
8043;DHT22;4064;48.132;11.366;2023-09-07T03:43:02;12.40;99.90
8043;DHT22;4064;48.132;11.366;2023-09-07T03:45:29;12.50;99.90
8043;DHT22;4064;48.132;11.366;2023-09-07T03:47:54;12.40;99.90
8043;DHT22;4064;48.132;11.366;2023-09-07T03:50:20;12.40;99.90
8043;DHT22;4064;48.132;11.366;2023-09-07T03:52:45;12.50;99.90
8043;DHT22;4064;48.132;11.366;2023-09-07T03:55:11;12.50;99.90
8043;DHT22;4064;48.132;11.366;2023-09-07T03:57:37;12.50;99.90
8043;DHT22;4064;48.132;11.366;2023-09-07T04:00:02;12.50;99.90
8043;DHT22;4064;48.132;11.366;2023-09-07T04:02:33;12.40;99.90
8043;DHT22;4064;48.132;11.366;2023-09-07T04:04:58;12.40;99.90
8043;DHT22;4064;48.132;11.366;2023-09-07T04:07:24;12.20;99.90
8043;DHT22;4064;48.132;11.366;2023-09-07T04:09:50;12.40;99.90
8043;DHT22;4064;48.132;11.366;2023-09-07T04:12:16;12.20;99.90
8043;DHT22;4064;48.132;11.366;2023-09-07T04:14:41;12.30;99.90
8043;DHT22;4064;48.132;11.366;2023-09-07T04:17:08;12.10;99.90
8043;DHT22;4064;48.132;11.366;2023-09-07T04:19:33;12.20;99.90
8043;DHT22;4064;48.132;11.366;2023-09-07T04:22:00;12.20;99.90
8043;DHT22;4064;48.132;11.366;2023-09-07T04:24:25;12.20;99.90
8043;DHT22;4064;48.132;11.366;2023-09-07T04:26:53;12.20;99.90
8043;DHT22;4064;48.132;11.366;2023-09-07T04:29:18;12.30;99.90
8043;DHT22;4064;48.132;11.366;2023-09-07T04:31:44;12.20;99.90
8043;DHT22;4064;48.132;11.366;2023-09-07T04:34:09;12.30;99.90
8043;DHT22;4064;48.132;11.366;2023-09-07T04:36:35;12.30;99.90
8043;DHT22;4064;48.132;11.366;2023-09-07T04:39:01;12.20;99.90
8043;DHT22;4064;48.132;11.366;2023-09-07T04:41:29;12.10;99.90
8043;DHT22;4064;48.132;11.366;2023-09-07T04:43:54;12.20;99.90
8043;DHT22;4064;48.132;11.366;2023-09-07T04:46:22;12.10;99.90
8043;DHT22;4064;48.132;11.366;2023-09-07T04:48:48;11.90;99.90
8043;DHT22;4064;48.132;11.366;2023-09-07T04:51:14;11.80;99.90
8043;DHT22;4064;48.132;11.366;2023-09-07T04:53:39;11.90;99.90
8043;DHT22;4064;48.132;11.366;2023-09-07T04:56:06;12.00;99.90
8043;DHT22;4064;48.132;11.366;2023-09-07T04:58:32;12.00;99.90
8043;DHT22;4064;48.132;11.366;2023-09-07T05:01:02;12.20;99.90
8043;DHT22;4064;48.132;11.366;2023-09-07T05:03:28;12.30;99.90
8043;DHT22;4064;48.132;11.366;2023-09-07T05:05:54;12.30;99.90
8043;DHT22;4064;48.132;11.366;2023-09-07T05:08:19;12.40;99.90
8043;DHT22;4064;48.132;11.366;2023-09-07T05:10:47;12.40;99.90
8043;DHT22;4064;48.132;11.366;2023-09-07T05:13:13;12.40;99.90
8043;DHT22;4064;48.132;11.366;2023-09-07T05:15:48;12.20;99.90
8043;DHT22;4064;48.132;11.366;2023-09-07T05:18:14;12.10;99.90
8043;DHT22;4064;48.132;11.366;2023-09-07T05:20:40;12.10;99.90
8043;DHT22;4064;48.132;11.366;2023-09-07T05:23:05;11.90;99.90
8043;DHT22;4064;48.132;11.366;2023-09-07T05:25:31;11.80;99.90
8043;DHT22;4064;48.132;11.366;2023-09-07T05:27:57;12.00;99.90
8043;DHT22;4064;48.132;11.366;2023-09-07T05:30:23;12.00;99.90
8043;DHT22;4064;48.132;11.366;2023-09-07T05:32:49;12.00;99.90
8043;DHT22;4064;48.132;11.366;2023-09-07T05:35:14;12.20;99.90
8043;DHT22;4064;48.132;11.366;2023-09-07T05:37:42;12.20;99.90
8043;DHT22;4064;48.132;11.366;2023-09-07T05:40:08;12.30;99.90
8043;DHT22;4064;48.132;11.366;2023-09-07T05:42:34;12.50;99.90
8043;DHT22;4064;48.132;11.366;2023-09-07T05:44:59;12.30;99.90
8043;DHT22;4064;48.132;11.366;2023-09-07T05:47:25;12.20;99.90
8043;DHT22;4064;48.132;11.366;2023-09-07T05:49:51;12.30;99.90
8043;DHT22;4064;48.132;11.366;2023-09-07T05:52:17;12.50;99.90
8043;DHT22;4064;48.132;11.366;2023-09-07T05:54:43;12.50;99.90
8043;DHT22;4064;48.132;11.366;2023-09-07T05:57:08;12.70;99.90
8043;DHT22;4064;48.132;11.366;2023-09-07T05:59:37;13.10;99.90
8043;DHT22;4064;48.132;11.366;2023-09-07T06:02:02;13.40;99.90
8043;DHT22;4064;48.132;11.366;2023-09-07T06:04:30;14.10;99.90
8043;DHT22;4064;48.132;11.366;2023-09-07T06:06:56;15.20;99.90
8043;DHT22;4064;48.132;11.366;2023-09-07T06:09:21;16.70;99.90
8043;DHT22;4064;48.132;11.366;2023-09-07T06:11:47;18.00;99.90
8043;DHT22;4064;48.132;11.366;2023-09-07T06:14:13;18.50;99.90
8043;DHT22;4064;48.132;11.366;2023-09-07T06:16:38;18.80;99.90
8043;DHT22;4064;48.132;11.366;2023-09-07T06:19:05;18.40;99.90
8043;DHT22;4064;48.132;11.366;2023-09-07T06:21:32;17.90;99.90
8043;DHT22;4064;48.132;11.366;2023-09-07T06:23:57;18.00;99.90
8043;DHT22;4064;48.132;11.366;2023-09-07T06:26:23;19.40;99.90
8043;DHT22;4064;48.132;11.366;2023-09-07T06:28:48;21.20;99.90
8043;DHT22;4064;48.132;11.366;2023-09-07T06:31:14;22.00;99.90
8043;DHT22;4064;48.132;11.366;2023-09-07T06:33:40;22.30;99.90
8043;DHT22;4064;48.132;11.366;2023-09-07T06:36:05;22.60;99.90
8043;DHT22;4064;48.132;11.366;2023-09-07T06:38:31;22.20;99.90
8043;DHT22;4064;48.132;11.366;2023-09-07T06:40:57;22.50;99.90
8043;DHT22;4064;48.132;11.366;2023-09-07T06:43:22;22.40;99.90
8043;DHT22;4064;48.132;11.366;2023-09-07T06:45:48;21.70;99.90
8043;DHT22;4064;48.132;11.366;2023-09-07T06:48:14;21.80;99.90
8043;DHT22;4064;48.132;11.366;2023-09-07T06:50:39;22.30;99.90
8043;DHT22;4064;48.132;11.366;2023-09-07T06:53:05;23.10;99.90
8043;DHT22;4064;48.132;11.366;2023-09-07T06:55:30;23.70;99.90
8043;DHT22;4064;48.132;11.366;2023-09-07T06:57:56;24.00;99.90
8043;DHT22;4064;48.132;11.366;2023-09-07T07:00:22;24.50;99.10
8043;DHT22;4064;48.132;11.366;2023-09-07T07:02:48;24.00;99.40
8043;DHT22;4064;48.132;11.366;2023-09-07T07:05:14;23.40;99.10
8043;DHT22;4064;48.132;11.366;2023-09-07T07:07:39;23.60;99.10
8043;DHT22;4064;48.132;11.366;2023-09-07T07:10:06;23.40;99.90
8043;DHT22;4064;48.132;11.366;2023-09-07T07:12:32;24.00;98.90
8043;DHT22;4064;48.132;11.366;2023-09-07T07:15:01;24.60;97.80
8043;DHT22;4064;48.132;11.366;2023-09-07T07:17:27;24.20;97.20
8043;DHT22;4064;48.132;11.366;2023-09-07T07:19:55;24.20;97.10
8043;DHT22;4064;48.132;11.366;2023-09-07T07:22:21;24.60;96.60
8043;DHT22;4064;48.132;11.366;2023-09-07T07:24:47;24.20;96.90
8043;DHT22;4064;48.132;11.366;2023-09-07T07:27:12;23.80;97.30
8043;DHT22;4064;48.132;11.366;2023-09-07T07:29:38;23.70;97.60
8043;DHT22;4064;48.132;11.366;2023-09-07T07:32:04;23.80;97.50
8043;DHT22;4064;48.132;11.366;2023-09-07T07:34:29;23.80;97.20
8043;DHT22;4064;48.132;11.366;2023-09-07T07:36:55;24.10;97.80
8043;DHT22;4064;48.132;11.366;2023-09-07T07:39:21;23.80;97.20
8043;DHT22;4064;48.132;11.366;2023-09-07T07:41:46;24.20;97.90
8043;DHT22;4064;48.132;11.366;2023-09-07T07:44:12;23.70;98.00
8043;DHT22;4064;48.132;11.366;2023-09-07T07:46:37;24.40;97.70
8043;DHT22;4064;48.132;11.366;2023-09-07T07:49:03;24.80;96.60
8043;DHT22;4064;48.132;11.366;2023-09-07T07:51:29;25.50;96.10
8043;DHT22;4064;48.132;11.366;2023-09-07T07:53:55;25.90;93.90
8043;DHT22;4064;48.132;11.366;2023-09-07T07:56:22;26.20;92.90
8043;DHT22;4064;48.132;11.366;2023-09-07T07:58:48;25.30;92.60
8043;DHT22;4064;48.132;11.366;2023-09-07T08:01:16;25.50;94.50
8043;DHT22;4064;48.132;11.366;2023-09-07T08:03:42;24.90;95.10
8043;DHT22;4064;48.132;11.366;2023-09-07T08:06:07;24.70;95.30
8043;DHT22;4064;48.132;11.366;2023-09-07T08:08:33;25.10;95.70
8043;DHT22;4064;48.132;11.366;2023-09-07T08:10:58;25.20;95.10
8043;DHT22;4064;48.132;11.366;2023-09-07T08:13:25;25.40;95.20
8043;DHT22;4064;48.132;11.366;2023-09-07T08:15:51;25.50;94.10
8043;DHT22;4064;48.132;11.366;2023-09-07T08:18:16;25.60;94.80
8043;DHT22;4064;48.132;11.366;2023-09-07T08:20:42;25.90;94.30
8043;DHT22;4064;48.132;11.366;2023-09-07T08:23:08;25.60;95.10
8043;DHT22;4064;48.132;11.366;2023-09-07T08:25:35;25.40;94.20
8043;DHT22;4064;48.132;11.366;2023-09-07T08:28:01;24.30;94.60
8043;DHT22;4064;48.132;11.366;2023-09-07T08:30:30;24.70;94.40
8043;DHT22;4064;48.132;11.366;2023-09-07T08:32:56;25.20;94.50
8043;DHT22;4064;48.132;11.366;2023-09-07T08:35:21;25.10;94.10
8043;DHT22;4064;48.132;11.366;2023-09-07T08:37:52;25.30;94.20
8043;DHT22;4064;48.132;11.366;2023-09-07T08:40:18;25.70;93.60
8043;DHT22;4064;48.132;11.366;2023-09-07T08:42:44;25.90;93.50
8043;DHT22;4064;48.132;11.366;2023-09-07T08:45:13;25.90;93.90
8043;DHT22;4064;48.132;11.366;2023-09-07T08:47:41;25.90;93.80
8043;DHT22;4064;48.132;11.366;2023-09-07T08:50:08;25.50;93.40
8043;DHT22;4064;48.132;11.366;2023-09-07T08:52:35;25.20;93.30
8043;DHT22;4064;48.132;11.366;2023-09-07T08:55:02;26.10;92.90
8043;DHT22;4064;48.132;11.366;2023-09-07T08:57:31;26.50;94.20
8043;DHT22;4064;48.132;11.366;2023-09-07T08:59:57;26.30;92.70
8043;DHT22;4064;48.132;11.366;2023-09-07T09:02:23;26.40;91.90
8043;DHT22;4064;48.132;11.366;2023-09-07T09:04:49;26.70;92.80
8043;DHT22;4064;48.132;11.366;2023-09-07T09:07:14;26.90;92.50
8043;DHT22;4064;48.132;11.366;2023-09-07T09:09:40;26.90;91.10
8043;DHT22;4064;48.132;11.366;2023-09-07T09:12:12;26.70;92.00
8043;DHT22;4064;48.132;11.366;2023-09-07T09:14:42;26.70;91.40
8043;DHT22;4064;48.132;11.366;2023-09-07T09:17:13;26.40;91.90
8043;DHT22;4064;48.132;11.366;2023-09-07T09:19:39;26.70;90.90
8043;DHT22;4064;48.132;11.366;2023-09-07T09:22:06;26.60;92.30
8043;DHT22;4064;48.132;11.366;2023-09-07T09:24:32;26.40;90.80
8043;DHT22;4064;48.132;11.366;2023-09-07T09:26:59;26.90;92.20
8043;DHT22;4064;48.132;11.366;2023-09-07T09:29:24;26.90;90.90
8043;DHT22;4064;48.132;11.366;2023-09-07T09:31:51;26.70;91.60
8043;DHT22;4064;48.132;11.366;2023-09-07T09:34:18;26.60;91.60
8043;DHT22;4064;48.132;11.366;2023-09-07T09:36:44;27.00;91.20
8043;DHT22;4064;48.132;11.366;2023-09-07T09:39:09;26.90;90.70
8043;DHT22;4064;48.132;11.366;2023-09-07T09:41:35;27.00;90.40
8043;DHT22;4064;48.132;11.366;2023-09-07T09:44:03;27.10;90.20
8043;DHT22;4064;48.132;11.366;2023-09-07T09:46:31;27.00;90.00
8043;DHT22;4064;48.132;11.366;2023-09-07T09:48:57;27.00;90.10
8043;DHT22;4064;48.132;11.366;2023-09-07T09:51:24;27.30;90.50
8043;DHT22;4064;48.132;11.366;2023-09-07T09:53:50;27.10;89.10
8043;DHT22;4064;48.132;11.366;2023-09-07T09:56:17;26.90;90.00
8043;DHT22;4064;48.132;11.366;2023-09-07T09:58:42;27.10;91.10
8043;DHT22;4064;48.132;11.366;2023-09-07T10:01:09;27.00;90.20
8043;DHT22;4064;48.132;11.366;2023-09-07T10:03:45;27.10;91.00
8043;DHT22;4064;48.132;11.366;2023-09-07T10:06:32;27.10;90.10
8043;DHT22;4064;48.132;11.366;2023-09-07T10:09:03;27.20;90.40
8043;DHT22;4064;48.132;11.366;2023-09-07T10:11:33;26.90;89.20
8043;DHT22;4064;48.132;11.366;2023-09-07T10:14:02;26.90;91.30
8043;DHT22;4064;48.132;11.366;2023-09-07T10:16:51;27.30;91.00
8043;DHT22;4064;48.132;11.366;2023-09-07T10:19:20;27.20;90.50
8043;DHT22;4064;48.132;11.366;2023-09-07T10:21:46;27.10;90.30
8043;DHT22;4064;48.132;11.366;2023-09-07T10:24:27;27.50;90.80
8043;DHT22;4064;48.132;11.366;2023-09-07T10:27:09;27.40;90.20
8043;DHT22;4064;48.132;11.366;2023-09-07T10:29:45;27.70;91.10
8043;DHT22;4064;48.132;11.366;2023-09-07T10:32:11;27.80;90.10
8043;DHT22;4064;48.132;11.366;2023-09-07T10:34:42;27.60;90.10
8043;DHT22;4064;48.132;11.366;2023-09-07T10:37:11;27.60;90.60
8043;DHT22;4064;48.132;11.366;2023-09-07T10:39:39;27.60;90.00
8043;DHT22;4064;48.132;11.366;2023-09-07T10:42:05;27.50;90.60
8043;DHT22;4064;48.132;11.366;2023-09-07T10:44:31;27.60;90.60
8043;DHT22;4064;48.132;11.366;2023-09-07T10:46:57;27.70;90.80
8043;DHT22;4064;48.132;11.366;2023-09-07T10:49:23;27.70;90.40
8043;DHT22;4064;48.132;11.366;2023-09-07T10:51:49;27.50;90.40
8043;DHT22;4064;48.132;11.366;2023-09-07T10:54:22;27.20;90.70
8043;DHT22;4064;48.132;11.366;2023-09-07T10:56:49;27.30;92.10
8043;DHT22;4064;48.132;11.366;2023-09-07T10:59:16;27.40;91.40
8043;DHT22;4064;48.132;11.366;2023-09-07T11:01:44;27.50;90.60
8043;DHT22;4064;48.132;11.366;2023-09-07T11:04:10;27.50;90.70
8043;DHT22;4064;48.132;11.366;2023-09-07T11:06:40;27.30;91.20
8043;DHT22;4064;48.132;11.366;2023-09-07T11:09:06;27.70;90.40
8043;DHT22;4064;48.132;11.366;2023-09-07T11:11:34;27.70;90.40
8043;DHT22;4064;48.132;11.366;2023-09-07T11:14:04;27.50;90.30
8043;DHT22;4064;48.132;11.366;2023-09-07T11:16:32;27.50;90.10
8043;DHT22;4064;48.132;11.366;2023-09-07T11:19:03;27.40;91.30
8043;DHT22;4064;48.132;11.366;2023-09-07T11:21:30;27.90;89.90
8043;DHT22;4064;48.132;11.366;2023-09-07T11:23:57;27.80;90.50
8043;DHT22;4064;48.132;11.366;2023-09-07T11:26:22;27.60;89.20
8043;DHT22;4064;48.132;11.366;2023-09-07T11:28:48;27.80;90.40
8043;DHT22;4064;48.132;11.366;2023-09-07T11:31:18;28.00;90.20
8043;DHT22;4064;48.132;11.366;2023-09-07T11:33:46;27.90;88.40
8043;DHT22;4064;48.132;11.366;2023-09-07T11:36:12;27.70;89.80
8043;DHT22;4064;48.132;11.366;2023-09-07T11:38:38;27.80;89.50
8043;DHT22;4064;48.132;11.366;2023-09-07T11:41:03;28.10;89.20
8043;DHT22;4064;48.132;11.366;2023-09-07T11:43:29;27.80;88.10
8043;DHT22;4064;48.132;11.366;2023-09-07T11:45:55;27.70;89.10
8043;DHT22;4064;48.132;11.366;2023-09-07T11:48:20;28.10;88.30
8043;DHT22;4064;48.132;11.366;2023-09-07T11:50:46;28.20;86.70
8043;DHT22;4064;48.132;11.366;2023-09-07T11:53:12;28.00;85.60
8043;DHT22;4064;48.132;11.366;2023-09-07T11:55:37;27.70;86.60
8043;DHT22;4064;48.132;11.366;2023-09-07T11:58:04;27.50;87.80
8043;DHT22;4064;48.132;11.366;2023-09-07T12:00:30;28.10;87.40
8043;DHT22;4064;48.132;11.366;2023-09-07T12:02:57;28.30;89.40
8043;DHT22;4064;48.132;11.366;2023-09-07T12:05:22;28.60;87.10
8043;DHT22;4064;48.132;11.366;2023-09-07T12:07:48;29.20;87.20
8043;DHT22;4064;48.132;11.366;2023-09-07T12:10:14;29.10;82.00
8043;DHT22;4064;48.132;11.366;2023-09-07T12:12:40;29.10;82.80
8043;DHT22;4064;48.132;11.366;2023-09-07T12:15:08;29.10;83.30
8043;DHT22;4064;48.132;11.366;2023-09-07T12:17:34;29.00;82.10
8043;DHT22;4064;48.132;11.366;2023-09-07T12:20:01;28.50;84.80
8043;DHT22;4064;48.132;11.366;2023-09-07T12:22:27;28.60;83.60
8043;DHT22;4064;48.132;11.366;2023-09-07T12:24:52;28.60;83.40
8043;DHT22;4064;48.132;11.366;2023-09-07T12:27:18;28.60;81.10
8043;DHT22;4064;48.132;11.366;2023-09-07T12:29:44;28.60;82.50
8043;DHT22;4064;48.132;11.366;2023-09-07T12:32:10;29.00;83.60
8043;DHT22;4064;48.132;11.366;2023-09-07T12:34:36;29.00;79.00
8043;DHT22;4064;48.132;11.366;2023-09-07T12:37:02;28.90;82.70
8043;DHT22;4064;48.132;11.366;2023-09-07T12:39:30;29.10;82.20
8043;DHT22;4064;48.132;11.366;2023-09-07T12:41:55;29.40;82.60
8043;DHT22;4064;48.132;11.366;2023-09-07T12:44:21;29.60;80.20
8043;DHT22;4064;48.132;11.366;2023-09-07T12:46:47;29.70;79.10
8043;DHT22;4064;48.132;11.366;2023-09-07T12:49:12;29.60;78.00
8043;DHT22;4064;48.132;11.366;2023-09-07T12:51:40;29.60;78.10
8043;DHT22;4064;48.132;11.366;2023-09-07T12:54:06;29.10;80.70
8043;DHT22;4064;48.132;11.366;2023-09-07T12:56:32;29.50;77.40
8043;DHT22;4064;48.132;11.366;2023-09-07T12:58:58;29.90;77.20
8043;DHT22;4064;48.132;11.366;2023-09-07T13:01:25;29.40;77.00
8043;DHT22;4064;48.132;11.366;2023-09-07T13:03:51;29.90;75.40
8043;DHT22;4064;48.132;11.366;2023-09-07T13:06:16;30.00;76.70
8043;DHT22;4064;48.132;11.366;2023-09-07T13:08:43;29.60;77.90
8043;DHT22;4064;48.132;11.366;2023-09-07T13:11:10;29.60;77.20
8043;DHT22;4064;48.132;11.366;2023-09-07T13:13:36;30.10;77.60
8043;DHT22;4064;48.132;11.366;2023-09-07T13:16:01;30.30;76.50
8043;DHT22;4064;48.132;11.366;2023-09-07T13:18:27;30.30;74.90
8043;DHT22;4064;48.132;11.366;2023-09-07T13:20:52;29.80;75.90
8043;DHT22;4064;48.132;11.366;2023-09-07T13:23:27;29.70;75.20
8043;DHT22;4064;48.132;11.366;2023-09-07T13:25:56;29.60;78.40
8043;DHT22;4064;48.132;11.366;2023-09-07T13:28:22;29.30;76.40
8043;DHT22;4064;48.132;11.366;2023-09-07T13:30:52;29.10;76.50
8043;DHT22;4064;48.132;11.366;2023-09-07T13:33:18;29.70;76.80
8043;DHT22;4064;48.132;11.366;2023-09-07T13:35:43;29.80;77.10
8043;DHT22;4064;48.132;11.366;2023-09-07T13:38:10;30.00;75.10
8043;DHT22;4064;48.132;11.366;2023-09-07T13:40:35;30.10;75.10
8043;DHT22;4064;48.132;11.366;2023-09-07T13:43:01;30.10;74.80
8043;DHT22;4064;48.132;11.366;2023-09-07T13:45:27;29.30;73.80
8043;DHT22;4064;48.132;11.366;2023-09-07T13:47:55;29.40;73.20
8043;DHT22;4064;48.132;11.366;2023-09-07T13:50:20;29.40;74.70
8043;DHT22;4064;48.132;11.366;2023-09-07T13:52:46;29.50;72.30
8043;DHT22;4064;48.132;11.366;2023-09-07T13:55:12;29.70;73.10
8043;DHT22;4064;48.132;11.366;2023-09-07T13:57:37;29.20;73.50
8043;DHT22;4064;48.132;11.366;2023-09-07T14:00:03;29.40;73.20
8043;DHT22;4064;48.132;11.366;2023-09-07T14:02:31;29.00;72.60
8043;DHT22;4064;48.132;11.366;2023-09-07T14:04:58;28.50;73.50
8043;DHT22;4064;48.132;11.366;2023-09-07T14:07:23;28.40;73.80
8043;DHT22;4064;48.132;11.366;2023-09-07T14:20:12;28.30;73.00
8043;DHT22;4064;48.132;11.366;2023-09-07T14:22:38;28.20;72.90
8043;DHT22;4064;48.132;11.366;2023-09-07T14:25:04;28.20;73.40
8043;DHT22;4064;48.132;11.366;2023-09-07T14:27:29;28.00;70.10
8043;DHT22;4064;48.132;11.366;2023-09-07T14:29:55;28.00;70.20
8043;DHT22;4064;48.132;11.366;2023-09-07T14:32:21;27.80;69.50
8043;DHT22;4064;48.132;11.366;2023-09-07T14:34:46;28.00;69.90
8043;DHT22;4064;48.132;11.366;2023-09-07T14:37:12;27.80;70.10
8043;DHT22;4064;48.132;11.366;2023-09-07T14:39:38;27.50;69.10
8043;DHT22;4064;48.132;11.366;2023-09-07T14:42:03;27.40;69.20
8043;DHT22;4064;48.132;11.366;2023-09-07T14:44:36;27.40;69.50
8043;DHT22;4064;48.132;11.366;2023-09-07T14:47:02;27.30;69.80
8043;DHT22;4064;48.132;11.366;2023-09-07T14:49:29;27.20;69.50
8043;DHT22;4064;48.132;11.366;2023-09-07T14:51:55;27.20;69.40
8043;DHT22;4064;48.132;11.366;2023-09-07T14:54:21;27.20;71.50
8043;DHT22;4064;48.132;11.366;2023-09-07T14:56:46;27.00;69.80
8043;DHT22;4064;48.132;11.366;2023-09-07T14:59:12;27.10;70.50
8043;DHT22;4064;48.132;11.366;2023-09-07T15:01:38;27.00;68.60
8043;DHT22;4064;48.132;11.366;2023-09-07T15:04:04;27.00;69.10
8043;DHT22;4064;48.132;11.366;2023-09-07T15:06:29;26.80;70.20
8043;DHT22;4064;48.132;11.366;2023-09-07T15:08:57;26.70;69.10
8043;DHT22;4064;48.132;11.366;2023-09-07T15:11:23;26.80;70.40
8043;DHT22;4064;48.132;11.366;2023-09-07T15:13:49;26.60;69.60
8043;DHT22;4064;48.132;11.366;2023-09-07T15:16:16;26.20;71.20
8043;DHT22;4064;48.132;11.366;2023-09-07T15:18:42;26.30;71.60
8043;DHT22;4064;48.132;11.366;2023-09-07T15:21:07;26.30;71.30
8043;DHT22;4064;48.132;11.366;2023-09-07T15:23:33;26.30;72.50
8043;DHT22;4064;48.132;11.366;2023-09-07T15:26:00;26.40;73.60
8043;DHT22;4064;48.132;11.366;2023-09-07T15:28:25;26.40;71.80
8043;DHT22;4064;48.132;11.366;2023-09-07T15:30:51;26.20;71.50
8043;DHT22;4064;48.132;11.366;2023-09-07T15:33:17;26.10;72.70
8043;DHT22;4064;48.132;11.366;2023-09-07T15:35:42;26.00;72.40
8043;DHT22;4064;48.132;11.366;2023-09-07T15:38:08;26.00;72.20
8043;DHT22;4064;48.132;11.366;2023-09-07T15:40:34;26.00;73.90
8043;DHT22;4064;48.132;11.366;2023-09-07T15:42:59;26.00;73.90
8043;DHT22;4064;48.132;11.366;2023-09-07T15:45:25;25.80;72.90
8043;DHT22;4064;48.132;11.366;2023-09-07T15:47:51;25.80;73.70
8043;DHT22;4064;48.132;11.366;2023-09-07T15:50:16;25.80;72.20